Air Navigation Services of Czech Republic
Airport: LKBC Updated:  04.06.2020 10:25:24  UTC
 METAR LKBC 04.06. 10:30 ...
METAR LKBC 041030Z AUTO 17004KT 100V210 9999 BKN084 BKN130 21/12 Q0998=